Edwards, New York
Current Conditions -  °F | °C
As of 8:58 PM on Monday 24 Nov 2014 (Local Time) from KGTB Reporting Station
Scattered Clouds Scattered Clouds  
Wind Chill: 50°   Ceiling: Unl
Heat Index: 50°   Visibility: 10mi
Dew Point: 41°   Wind: 13mph
Humidity: 70%   Direction: 260°W
Pressure: 29.52"   Gusts: 33mph
Location:  44.32°N, 75.25°W
Report Text: KGTB 250158Z AUTO 26011G29KT 10SM SCT039 10/05 A2952 RMK AO2 PK WND 25034/06 SLP998 T01000048
Loading
Personal Weather Stations






























Interactive Weather Map New forecast layout! Learn more

10-Day Weather Forecast

Advertisements
Track Severe Weather on mobile